sensor_id;sensor_type;location;lat;lon;timestamp;P1;durP1;ratioP1;P2;durP2;ratioP2
44147;SDS011;29810;55.848;37.368;2023-02-28T00:02:27;11.12;;;6.10;;
44147;SDS011;29810;55.848;37.368;2023-02-28T00:05:29;12.70;;;6.75;;
44147;SDS011;29810;55.848;37.368;2023-02-28T00:08:31;10.43;;;6.10;;
44147;SDS011;29810;55.848;37.368;2023-02-28T00:11:32;9.95;;;5.72;;
44147;SDS011;29810;55.848;37.368;2023-02-28T00:14:34;8.65;;;5.72;;
44147;SDS011;29810;55.848;37.368;2023-02-28T00:17:36;10.95;;;6.05;;
44147;SDS011;29810;55.848;37.368;2023-02-28T00:20:38;9.27;;;5.43;;
44147;SDS011;29810;55.848;37.368;2023-02-28T00:23:40;8.95;;;5.82;;
44147;SDS011;29810;55.848;37.368;2023-02-28T00:26:45;10.32;;;5.75;;
44147;SDS011;29810;55.848;37.368;2023-02-28T00:29:47;10.00;;;5.30;;
44147;SDS011;29810;55.848;37.368;2023-02-28T00:32:49;9.52;;;5.93;;
44147;SDS011;29810;55.848;37.368;2023-02-28T00:35:51;8.75;;;5.07;;
44147;SDS011;29810;55.848;37.368;2023-02-28T00:38:53;10.70;;;5.22;;
44147;SDS011;29810;55.848;37.368;2023-02-28T00:41:54;10.18;;;5.87;;
44147;SDS011;29810;55.848;37.368;2023-02-28T00:44:56;9.32;;;5.53;;
44147;SDS011;29810;55.848;37.368;2023-02-28T00:47:57;10.50;;;5.90;;
44147;SDS011;29810;55.848;37.368;2023-02-28T00:50:59;10.32;;;5.78;;
44147;SDS011;29810;55.848;37.368;2023-02-28T00:54:01;8.10;;;4.62;;
44147;SDS011;29810;55.848;37.368;2023-02-28T00:57:02;11.15;;;5.43;;
44147;SDS011;29810;55.848;37.368;2023-02-28T01:00:06;8.98;;;5.40;;
44147;SDS011;29810;55.848;37.368;2023-02-28T01:03:09;10.88;;;6.00;;
44147;SDS011;29810;55.848;37.368;2023-02-28T01:06:11;9.00;;;5.37;;
44147;SDS011;29810;55.848;37.368;2023-02-28T01:09:13;8.52;;;5.18;;
44147;SDS011;29810;55.848;37.368;2023-02-28T01:12:16;8.25;;;5.07;;
44147;SDS011;29810;55.848;37.368;2023-02-28T01:15:18;10.05;;;5.57;;
44147;SDS011;29810;55.848;37.368;2023-02-28T01:18:20;9.38;;;5.68;;
44147;SDS011;29810;55.848;37.368;2023-02-28T01:21:22;10.25;;;5.75;;
44147;SDS011;29810;55.848;37.368;2023-02-28T01:24:24;8.40;;;5.47;;
44147;SDS011;29810;55.848;37.368;2023-02-28T01:27:26;7.97;;;4.97;;
44147;SDS011;29810;55.848;37.368;2023-02-28T01:30:30;10.52;;;5.80;;
44147;SDS011;29810;55.848;37.368;2023-02-28T01:33:31;8.88;;;5.50;;
44147;SDS011;29810;55.848;37.368;2023-02-28T01:36:34;9.75;;;5.25;;
44147;SDS011;29810;55.848;37.368;2023-02-28T01:39:37;9.43;;;5.43;;
44147;SDS011;29810;55.848;37.368;2023-02-28T01:42:38;7.05;;;4.60;;
44147;SDS011;29810;55.848;37.368;2023-02-28T01:45:40;10.27;;;6.28;;
44147;SDS011;29810;55.848;37.368;2023-02-28T01:48:48;9.90;;;6.25;;
44147;SDS011;29810;55.848;37.368;2023-02-28T01:51:53;9.13;;;5.57;;
44147;SDS011;29810;55.848;37.368;2023-02-28T01:54:59;9.15;;;5.78;;
44147;SDS011;29810;55.848;37.368;2023-02-28T01:58:05;9.05;;;4.95;;
44147;SDS011;29810;55.848;37.368;2023-02-28T02:01:10;9.57;;;5.20;;
44147;SDS011;29810;55.848;37.368;2023-02-28T02:04:23;10.38;;;5.95;;
44147;SDS011;29810;55.848;37.368;2023-02-28T02:07:33;9.38;;;5.30;;
44147;SDS011;29810;55.848;37.368;2023-02-28T02:10:42;10.45;;;6.05;;
44147;SDS011;29810;55.848;37.368;2023-02-28T02:17:28;9.63;;;5.57;;
44147;SDS011;29810;55.848;37.368;2023-02-28T02:28:12;8.73;;;5.30;;
44147;SDS011;29810;55.848;37.368;2023-02-28T02:38:40;8.70;;;5.03;;
44147;SDS011;29810;55.848;37.368;2023-02-28T02:41:53;10.10;;;5.23;;
44147;SDS011;29810;55.848;37.368;2023-02-28T02:45:01;8.98;;;5.55;;
44147;SDS011;29810;55.848;37.368;2023-02-28T02:48:08;9.25;;;5.37;;
44147;SDS011;29810;55.848;37.368;2023-02-28T02:51:14;9.20;;;4.90;;
44147;SDS011;29810;55.848;37.368;2023-02-28T02:54:20;8.35;;;4.93;;
44147;SDS011;29810;55.848;37.368;2023-02-28T02:57:31;10.85;;;5.20;;
44147;SDS011;29810;55.848;37.368;2023-02-28T03:00:35;8.85;;;4.95;;
44147;SDS011;29810;55.848;37.368;2023-02-28T03:03:44;10.48;;;5.53;;
44147;SDS011;29810;55.848;37.368;2023-02-28T03:06:47;8.70;;;4.60;;
44147;SDS011;29810;55.848;37.368;2023-02-28T03:09:52;9.25;;;5.20;;
44147;SDS011;29810;55.848;37.368;2023-02-28T03:22:52;8.55;;;4.50;;
44147;SDS011;29810;55.848;37.368;2023-02-28T03:26:24;6.90;;;4.47;;
44147;SDS011;29810;55.848;37.368;2023-02-28T03:29:29;8.05;;;4.60;;
44147;SDS011;29810;55.848;37.368;2023-02-28T03:32:36;8.02;;;4.93;;
44147;SDS011;29810;55.848;37.368;2023-02-28T03:35:45;9.65;;;4.95;;
44147;SDS011;29810;55.848;37.368;2023-02-28T03:38:53;9.15;;;5.68;;
44147;SDS011;29810;55.848;37.368;2023-02-28T03:42:01;6.43;;;3.20;;
44147;SDS011;29810;55.848;37.368;2023-02-28T03:45:12;8.13;;;3.85;;
44147;SDS011;29810;55.848;37.368;2023-02-28T03:48:22;8.75;;;5.12;;
44147;SDS011;29810;55.848;37.368;2023-02-28T03:51:32;8.07;;;4.75;;
44147;SDS011;29810;55.848;37.368;2023-02-28T03:54:56;7.78;;;4.72;;
44147;SDS011;29810;55.848;37.368;2023-02-28T04:01:53;9.23;;;4.90;;
44147;SDS011;29810;55.848;37.368;2023-02-28T04:04:56;7.95;;;3.83;;
44147;SDS011;29810;55.848;37.368;2023-02-28T04:08:04;6.85;;;3.20;;
44147;SDS011;29810;55.848;37.368;2023-02-28T04:11:12;8.20;;;4.55;;
44147;SDS011;29810;55.848;37.368;2023-02-28T04:14:30;7.10;;;4.45;;
44147;SDS011;29810;55.848;37.368;2023-02-28T04:17:32;8.30;;;4.53;;
44147;SDS011;29810;55.848;37.368;2023-02-28T04:20:33;7.57;;;4.43;;
44147;SDS011;29810;55.848;37.368;2023-02-28T04:23:35;7.25;;;3.75;;
44147;SDS011;29810;55.848;37.368;2023-02-28T04:26:36;7.68;;;4.10;;
44147;SDS011;29810;55.848;37.368;2023-02-28T04:29:38;8.10;;;4.25;;
44147;SDS011;29810;55.848;37.368;2023-02-28T04:32:39;7.95;;;4.12;;
44147;SDS011;29810;55.848;37.368;2023-02-28T04:35:41;8.20;;;4.55;;
44147;SDS011;29810;55.848;37.368;2023-02-28T04:38:43;9.05;;;4.45;;
44147;SDS011;29810;55.848;37.368;2023-02-28T04:41:45;8.45;;;4.12;;
44147;SDS011;29810;55.848;37.368;2023-02-28T04:44:47;8.75;;;4.75;;
44147;SDS011;29810;55.848;37.368;2023-02-28T04:47:48;7.03;;;3.75;;
44147;SDS011;29810;55.848;37.368;2023-02-28T04:50:50;8.38;;;4.55;;
44147;SDS011;29810;55.848;37.368;2023-02-28T04:53:56;6.82;;;4.28;;
44147;SDS011;29810;55.848;37.368;2023-02-28T04:57:01;9.23;;;5.40;;
44147;SDS011;29810;55.848;37.368;2023-02-28T05:00:03;8.07;;;5.00;;
44147;SDS011;29810;55.848;37.368;2023-02-28T05:03:08;7.97;;;4.55;;
44147;SDS011;29810;55.848;37.368;2023-02-28T05:06:11;7.55;;;4.35;;
44147;SDS011;29810;55.848;37.368;2023-02-28T05:09:14;8.27;;;4.70;;
44147;SDS011;29810;55.848;37.368;2023-02-28T05:12:15;8.02;;;5.47;;
44147;SDS011;29810;55.848;37.368;2023-02-28T05:15:17;7.95;;;4.10;;
44147;SDS011;29810;55.848;37.368;2023-02-28T05:18:18;6.93;;;4.32;;
44147;SDS011;29810;55.848;37.368;2023-02-28T05:21:24;8.35;;;4.57;;
44147;SDS011;29810;55.848;37.368;2023-02-28T05:24:28;6.80;;;4.10;;
44147;SDS011;29810;55.848;37.368;2023-02-28T05:27:30;7.20;;;4.32;;
44147;SDS011;29810;55.848;37.368;2023-02-28T05:30:32;6.07;;;3.67;;
44147;SDS011;29810;55.848;37.368;2023-02-28T05:33:34;7.78;;;4.55;;
44147;SDS011;29810;55.848;37.368;2023-02-28T05:36:36;8.23;;;4.53;;
44147;SDS011;29810;55.848;37.368;2023-02-28T05:39:38;7.07;;;3.97;;
44147;SDS011;29810;55.848;37.368;2023-02-28T05:42:40;5.50;;;3.85;;
44147;SDS011;29810;55.848;37.368;2023-02-28T05:45:42;7.15;;;4.22;;
44147;SDS011;29810;55.848;37.368;2023-02-28T05:48:46;7.07;;;4.05;;
44147;SDS011;29810;55.848;37.368;2023-02-28T05:51:48;6.28;;;3.97;;
44147;SDS011;29810;55.848;37.368;2023-02-28T05:54:50;6.80;;;3.87;;
44147;SDS011;29810;55.848;37.368;2023-02-28T05:57:51;6.57;;;4.07;;
44147;SDS011;29810;55.848;37.368;2023-02-28T06:00:52;7.53;;;3.42;;
44147;SDS011;29810;55.848;37.368;2023-02-28T06:03:54;5.95;;;3.60;;
44147;SDS011;29810;55.848;37.368;2023-02-28T06:06:56;6.72;;;3.65;;
44147;SDS011;29810;55.848;37.368;2023-02-28T06:09:58;5.22;;;2.97;;
44147;SDS011;29810;55.848;37.368;2023-02-28T06:13:00;8.25;;;3.42;;
44147;SDS011;29810;55.848;37.368;2023-02-28T06:16:03;6.90;;;4.03;;
44147;SDS011;29810;55.848;37.368;2023-02-28T06:19:05;6.18;;;3.90;;
44147;SDS011;29810;55.848;37.368;2023-02-28T06:22:07;7.03;;;3.85;;
44147;SDS011;29810;55.848;37.368;2023-02-28T06:25:09;6.03;;;3.17;;
44147;SDS011;29810;55.848;37.368;2023-02-28T06:28:11;6.12;;;3.35;;
44147;SDS011;29810;55.848;37.368;2023-02-28T06:31:13;5.97;;;3.65;;
44147;SDS011;29810;55.848;37.368;2023-02-28T06:34:16;5.97;;;3.42;;
44147;SDS011;29810;55.848;37.368;2023-02-28T06:37:18;6.55;;;4.05;;
44147;SDS011;29810;55.848;37.368;2023-02-28T06:40:20;5.85;;;3.15;;
44147;SDS011;29810;55.848;37.368;2023-02-28T06:43:21;6.00;;;3.30;;
44147;SDS011;29810;55.848;37.368;2023-02-28T06:46:24;6.40;;;3.47;;
44147;SDS011;29810;55.848;37.368;2023-02-28T06:49:25;5.37;;;3.22;;
44147;SDS011;29810;55.848;37.368;2023-02-28T06:52:27;5.55;;;3.58;;
44147;SDS011;29810;55.848;37.368;2023-02-28T06:55:28;6.05;;;3.35;;
44147;SDS011;29810;55.848;37.368;2023-02-28T06:58:30;6.93;;;3.72;;
44147;SDS011;29810;55.848;37.368;2023-02-28T07:01:31;5.87;;;3.78;;
44147;SDS011;29810;55.848;37.368;2023-02-28T07:04:33;6.03;;;3.30;;
44147;SDS011;29810;55.848;37.368;2023-02-28T07:07:35;5.95;;;3.40;;
44147;SDS011;29810;55.848;37.368;2023-02-28T07:10:39;5.65;;;3.45;;
44147;SDS011;29810;55.848;37.368;2023-02-28T07:13:41;6.70;;;3.75;;
44147;SDS011;29810;55.848;37.368;2023-02-28T07:16:42;5.37;;;3.60;;
44147;SDS011;29810;55.848;37.368;2023-02-28T07:19:46;7.12;;;3.15;;
44147;SDS011;29810;55.848;37.368;2023-02-28T07:22:48;6.10;;;3.35;;
44147;SDS011;29810;55.848;37.368;2023-02-28T07:25:56;7.82;;;4.55;;
44147;SDS011;29810;55.848;37.368;2023-02-28T07:28:58;7.12;;;3.87;;
44147;SDS011;29810;55.848;37.368;2023-02-28T07:31:59;7.18;;;3.80;;
44147;SDS011;29810;55.848;37.368;2023-02-28T07:35:00;6.03;;;3.35;;
44147;SDS011;29810;55.848;37.368;2023-02-28T07:38:02;6.97;;;3.83;;
44147;SDS011;29810;55.848;37.368;2023-02-28T07:41:04;5.72;;;3.62;;
44147;SDS011;29810;55.848;37.368;2023-02-28T07:44:06;9.60;;;3.60;;
44147;SDS011;29810;55.848;37.368;2023-02-28T07:47:08;4.80;;;2.83;;
44147;SDS011;29810;55.848;37.368;2023-02-28T07:50:11;6.62;;;3.90;;
44147;SDS011;29810;55.848;37.368;2023-02-28T07:53:17;6.37;;;3.35;;
44147;SDS011;29810;55.848;37.368;2023-02-28T07:56:18;7.50;;;3.80;;
44147;SDS011;29810;55.848;37.368;2023-02-28T07:59:21;6.30;;;3.75;;
44147;SDS011;29810;55.848;37.368;2023-02-28T08:02:23;6.32;;;3.95;;
44147;SDS011;29810;55.848;37.368;2023-02-28T08:05:25;6.07;;;3.80;;
44147;SDS011;29810;55.848;37.368;2023-02-28T08:08:26;8.55;;;3.97;;
44147;SDS011;29810;55.848;37.368;2023-02-28T08:11:32;6.00;;;3.80;;
44147;SDS011;29810;55.848;37.368;2023-02-28T08:14:34;6.43;;;3.70;;
44147;SDS011;29810;55.848;37.368;2023-02-28T08:17:36;6.00;;;3.53;;
44147;SDS011;29810;55.848;37.368;2023-02-28T08:20:37;7.90;;;3.70;;
44147;SDS011;29810;55.848;37.368;2023-02-28T08:23:39;6.05;;;3.37;;
44147;SDS011;29810;55.848;37.368;2023-02-28T08:26:40;5.20;;;3.30;;
44147;SDS011;29810;55.848;37.368;2023-02-28T08:29:42;5.22;;;3.35;;
44147;SDS011;29810;55.848;37.368;2023-02-28T08:32:43;6.03;;;3.85;;
44147;SDS011;29810;55.848;37.368;2023-02-28T08:35:45;7.03;;;3.97;;
44147;SDS011;29810;55.848;37.368;2023-02-28T08:38:46;5.78;;;3.47;;
44147;SDS011;29810;55.848;37.368;2023-02-28T08:41:48;6.50;;;3.62;;
44147;SDS011;29810;55.848;37.368;2023-02-28T08:44:49;14.80;;;3.17;;
44147;SDS011;29810;55.848;37.368;2023-02-28T08:47:51;6.15;;;3.20;;
44147;SDS011;29810;55.848;37.368;2023-02-28T08:50:59;6.15;;;3.35;;
44147;SDS011;29810;55.848;37.368;2023-02-28T08:54:02;5.97;;;3.85;;
44147;SDS011;29810;55.848;37.368;2023-02-28T08:57:04;5.53;;;3.10;;
44147;SDS011;29810;55.848;37.368;2023-02-28T09:00:06;7.12;;;3.30;;
44147;SDS011;29810;55.848;37.368;2023-02-28T09:03:08;6.07;;;3.95;;
44147;SDS011;29810;55.848;37.368;2023-02-28T09:06:10;4.55;;;2.85;;
44147;SDS011;29810;55.848;37.368;2023-02-28T09:09:12;4.95;;;2.95;;
44147;SDS011;29810;55.848;37.368;2023-02-28T09:12:14;5.43;;;2.95;;
44147;SDS011;29810;55.848;37.368;2023-02-28T09:15:15;5.60;;;3.42;;
44147;SDS011;29810;55.848;37.368;2023-02-28T09:18:17;5.75;;;3.50;;
44147;SDS011;29810;55.848;37.368;2023-02-28T09:21:18;4.95;;;3.33;;
44147;SDS011;29810;55.848;37.368;2023-02-28T09:24:20;4.97;;;2.87;;
44147;SDS011;29810;55.848;37.368;2023-02-28T09:27:21;8.63;;;3.67;;
44147;SDS011;29810;55.848;37.368;2023-02-28T09:30:23;4.72;;;3.20;;
44147;SDS011;29810;55.848;37.368;2023-02-28T09:33:25;5.40;;;3.30;;
44147;SDS011;29810;55.848;37.368;2023-02-28T09:36:27;5.68;;;3.20;;
44147;SDS011;29810;55.848;37.368;2023-02-28T09:39:30;5.55;;;3.28;;
44147;SDS011;29810;55.848;37.368;2023-02-28T09:42:33;6.32;;;3.65;;
44147;SDS011;29810;55.848;37.368;2023-02-28T09:45:36;5.07;;;3.12;;
44147;SDS011;29810;55.848;37.368;2023-02-28T09:48:42;6.60;;;3.45;;
44147;SDS011;29810;55.848;37.368;2023-02-28T09:54:55;5.10;;;2.92;;
44147;SDS011;29810;55.848;37.368;2023-02-28T09:57:57;5.70;;;3.37;;
44147;SDS011;29810;55.848;37.368;2023-02-28T10:01:06;5.22;;;2.97;;
44147;SDS011;29810;55.848;37.368;2023-02-28T10:10:45;6.28;;;3.47;;
44147;SDS011;29810;55.848;37.368;2023-02-28T10:16:55;5.28;;;3.00;;
44147;SDS011;29810;55.848;37.368;2023-02-28T10:20:07;5.85;;;3.50;;
44147;SDS011;29810;55.848;37.368;2023-02-28T10:26:48;7.30;;;3.62;;
44147;SDS011;29810;55.848;37.368;2023-02-28T10:29:59;4.80;;;2.87;;
44147;SDS011;29810;55.848;37.368;2023-02-28T10:33:01;5.53;;;3.37;;
44147;SDS011;29810;55.848;37.368;2023-02-28T10:36:03;8.18;;;4.18;;
44147;SDS011;29810;55.848;37.368;2023-02-28T10:42:40;6.50;;;3.90;;
44147;SDS011;29810;55.848;37.368;2023-02-28T10:46:24;6.47;;;3.40;;
44147;SDS011;29810;55.848;37.368;2023-02-28T10:49:13;5.72;;;3.60;;
44147;SDS011;29810;55.848;37.368;2023-02-28T10:52:36;4.75;;;2.67;;
44147;SDS011;29810;55.848;37.368;2023-02-28T10:55:40;6.97;;;3.33;;
44147;SDS011;29810;55.848;37.368;2023-02-28T11:02:14;6.35;;;3.70;;
44147;SDS011;29810;55.848;37.368;2023-02-28T11:05:33;6.70;;;3.65;;
44147;SDS011;29810;55.848;37.368;2023-02-28T11:08:43;6.15;;;3.70;;
44147;SDS011;29810;55.848;37.368;2023-02-28T11:11:47;5.85;;;3.80;;
44147;SDS011;29810;55.848;37.368;2023-02-28T11:14:59;6.97;;;3.97;;
44147;SDS011;29810;55.848;37.368;2023-02-28T11:21:35;6.15;;;3.75;;
44147;SDS011;29810;55.848;37.368;2023-02-28T11:24:42;6.15;;;3.80;;
44147;SDS011;29810;55.848;37.368;2023-02-28T11:30:59;5.87;;;3.80;;
44147;SDS011;29810;55.848;37.368;2023-02-28T11:34:10;5.43;;;3.78;;
44147;SDS011;29810;55.848;37.368;2023-02-28T11:37:24;7.68;;;4.07;;
44147;SDS011;29810;55.848;37.368;2023-02-28T11:40:30;6.57;;;3.90;;
44147;SDS011;29810;55.848;37.368;2023-02-28T11:47:10;6.47;;;4.10;;
44147;SDS011;29810;55.848;37.368;2023-02-28T12:07:47;6.70;;;4.18;;
44147;SDS011;29810;55.848;37.368;2023-02-28T12:17:30;6.65;;;4.10;;
44147;SDS011;29810;55.848;37.368;2023-02-28T12:21:01;6.47;;;3.92;;
44147;SDS011;29810;55.848;37.368;2023-02-28T12:27:32;5.87;;;4.22;;
44147;SDS011;29810;55.848;37.368;2023-02-28T12:30:39;7.57;;;4.47;;
44147;SDS011;29810;55.848;37.368;2023-02-28T12:33:53;9.20;;;4.62;;
44147;SDS011;29810;55.848;37.368;2023-02-28T12:37:07;6.20;;;4.32;;
44147;SDS011;29810;55.848;37.368;2023-02-28T12:40:15;6.12;;;3.78;;
44147;SDS011;29810;55.848;37.368;2023-02-28T12:43:22;6.80;;;4.78;;
44147;SDS011;29810;55.848;37.368;2023-02-28T12:46:45;6.45;;;4.60;;
44147;SDS011;29810;55.848;37.368;2023-02-28T12:49:56;7.70;;;4.37;;
44147;SDS011;29810;55.848;37.368;2023-02-28T12:57:02;6.90;;;4.40;;
44147;SDS011;29810;55.848;37.368;2023-02-28T13:00:18;6.57;;;4.15;;
44147;SDS011;29810;55.848;37.368;2023-02-28T13:03:33;6.22;;;4.43;;
44147;SDS011;29810;55.848;37.368;2023-02-28T13:06:45;7.65;;;4.18;;
44147;SDS011;29810;55.848;37.368;2023-02-28T13:09:59;6.10;;;4.22;;
44147;SDS011;29810;55.848;37.368;2023-02-28T13:13:04;7.28;;;4.22;;
44147;SDS011;29810;55.848;37.368;2023-02-28T13:16:07;8.80;;;3.55;;
44147;SDS011;29810;55.848;37.368;2023-02-28T13:19:10;5.37;;;3.33;;
44147;SDS011;29810;55.848;37.368;2023-02-28T13:22:20;6.80;;;3.47;;
44147;SDS011;29810;55.848;37.368;2023-02-28T13:38:09;5.60;;;3.78;;
44147;SDS011;29810;55.848;37.368;2023-02-28T13:44:29;6.28;;;3.95;;
44147;SDS011;29810;55.848;37.368;2023-02-28T13:47:44;7.20;;;3.62;;
44147;SDS011;29810;55.848;37.368;2023-02-28T13:50:52;6.68;;;3.80;;
44147;SDS011;29810;55.848;37.368;2023-02-28T13:54:02;5.72;;;3.70;;
44147;SDS011;29810;55.848;37.368;2023-02-28T14:00:43;5.55;;;3.55;;
44147;SDS011;29810;55.848;37.368;2023-02-28T14:07:50;5.28;;;3.40;;
44147;SDS011;29810;55.848;37.368;2023-02-28T14:11:05;5.90;;;3.60;;
44147;SDS011;29810;55.848;37.368;2023-02-28T14:14:53;4.95;;;3.08;;
44147;SDS011;29810;55.848;37.368;2023-02-28T14:17:37;5.40;;;3.65;;
44147;SDS011;29810;55.848;37.368;2023-02-28T14:20:39;4.60;;;3.33;;
44147;SDS011;29810;55.848;37.368;2023-02-28T14:24:02;5.28;;;3.62;;
44147;SDS011;29810;55.848;37.368;2023-02-28T14:30:48;6.03;;;3.75;;
44147;SDS011;29810;55.848;37.368;2023-02-28T14:37:41;5.60;;;3.25;;
44147;SDS011;29810;55.848;37.368;2023-02-28T14:40:43;5.37;;;3.50;;
44147;SDS011;29810;55.848;37.368;2023-02-28T14:43:58;5.93;;;3.87;;
44147;SDS011;29810;55.848;37.368;2023-02-28T14:47:01;5.20;;;3.53;;
44147;SDS011;29810;55.848;37.368;2023-02-28T14:53:19;5.05;;;3.30;;
44147;SDS011;29810;55.848;37.368;2023-02-28T14:56:26;4.75;;;3.42;;
44147;SDS011;29810;55.848;37.368;2023-02-28T14:59:35;5.12;;;3.83;;
44147;SDS011;29810;55.848;37.368;2023-02-28T15:02:37;5.65;;;3.85;;
44147;SDS011;29810;55.848;37.368;2023-02-28T15:05:40;6.37;;;3.58;;
44147;SDS011;29810;55.848;37.368;2023-02-28T15:08:45;5.37;;;3.60;;
44147;SDS011;29810;55.848;37.368;2023-02-28T15:11:47;5.25;;;3.90;;
44147;SDS011;29810;55.848;37.368;2023-02-28T15:18:43;5.15;;;3.40;;
44147;SDS011;29810;55.848;37.368;2023-02-28T15:22:24;6.37;;;3.60;;
44147;SDS011;29810;55.848;37.368;2023-02-28T15:25:21;5.40;;;3.50;;
44147;SDS011;29810;55.848;37.368;2023-02-28T15:28:27;4.57;;;2.95;;
44147;SDS011;29810;55.848;37.368;2023-02-28T15:31:31;5.20;;;3.30;;
44147;SDS011;29810;55.848;37.368;2023-02-28T15:34:38;5.35;;;3.42;;
44147;SDS011;29810;55.848;37.368;2023-02-28T15:37:45;6.32;;;3.53;;
44147;SDS011;29810;55.848;37.368;2023-02-28T15:40:53;6.70;;;3.40;;
44147;SDS011;29810;55.848;37.368;2023-02-28T15:47:32;4.53;;;3.40;;
44147;SDS011;29810;55.848;37.368;2023-02-28T15:50:34;5.07;;;3.10;;
44147;SDS011;29810;55.848;37.368;2023-02-28T15:53:59;5.15;;;3.25;;
44147;SDS011;29810;55.848;37.368;2023-02-28T15:57:05;4.50;;;3.08;;
44147;SDS011;29810;55.848;37.368;2023-02-28T16:00:12;4.75;;;3.05;;
44147;SDS011;29810;55.848;37.368;2023-02-28T16:03:35;4.60;;;3.17;;
44147;SDS011;29810;55.848;37.368;2023-02-28T16:06:53;5.55;;;3.10;;
44147;SDS011;29810;55.848;37.368;2023-02-28T16:10:06;4.70;;;3.17;;
44147;SDS011;29810;55.848;37.368;2023-02-28T16:13:09;4.80;;;2.80;;
44147;SDS011;29810;55.848;37.368;2023-02-28T16:16:17;5.10;;;3.33;;
44147;SDS011;29810;55.848;37.368;2023-02-28T16:19:22;5.03;;;3.40;;
44147;SDS011;29810;55.848;37.368;2023-02-28T16:22:25;4.80;;;3.53;;
44147;SDS011;29810;55.848;37.368;2023-02-28T16:25:29;4.97;;;3.40;;
44147;SDS011;29810;55.848;37.368;2023-02-28T16:28:37;5.03;;;2.95;;
44147;SDS011;29810;55.848;37.368;2023-02-28T16:31:39;4.78;;;3.28;;
44147;SDS011;29810;55.848;37.368;2023-02-28T16:34:42;4.68;;;3.37;;
44147;SDS011;29810;55.848;37.368;2023-02-28T16:37:44;5.93;;;3.37;;
44147;SDS011;29810;55.848;37.368;2023-02-28T16:40:46;5.10;;;3.40;;
44147;SDS011;29810;55.848;37.368;2023-02-28T16:43:51;5.87;;;3.47;;
44147;SDS011;29810;55.848;37.368;2023-02-28T16:46:56;5.12;;;3.80;;
44147;SDS011;29810;55.848;37.368;2023-02-28T16:50:00;5.55;;;3.75;;
44147;SDS011;29810;55.848;37.368;2023-02-28T16:53:02;6.25;;;4.12;;
44147;SDS011;29810;55.848;37.368;2023-02-28T16:56:04;6.97;;;4.40;;
44147;SDS011;29810;55.848;37.368;2023-02-28T16:59:08;5.75;;;3.92;;
44147;SDS011;29810;55.848;37.368;2023-02-28T17:02:12;6.65;;;4.05;;
44147;SDS011;29810;55.848;37.368;2023-02-28T17:05:16;5.62;;;3.53;;
44147;SDS011;29810;55.848;37.368;2023-02-28T17:08:19;5.12;;;3.30;;
44147;SDS011;29810;55.848;37.368;2023-02-28T17:11:24;6.68;;;3.40;;
44147;SDS011;29810;55.848;37.368;2023-02-28T17:14:27;6.05;;;3.25;;
44147;SDS011;29810;55.848;37.368;2023-02-28T17:17:28;4.45;;;2.72;;
44147;SDS011;29810;55.848;37.368;2023-02-28T17:20:30;4.90;;;2.90;;
44147;SDS011;29810;55.848;37.368;2023-02-28T17:23:33;3.85;;;2.65;;
44147;SDS011;29810;55.848;37.368;2023-02-28T17:26:35;4.00;;;2.60;;
44147;SDS011;29810;55.848;37.368;2023-02-28T17:29:36;4.07;;;2.40;;
44147;SDS011;29810;55.848;37.368;2023-02-28T17:32:38;4.68;;;2.50;;
44147;SDS011;29810;55.848;37.368;2023-02-28T17:35:40;4.50;;;2.30;;
44147;SDS011;29810;55.848;37.368;2023-02-28T17:38:42;3.65;;;2.22;;
44147;SDS011;29810;55.848;37.368;2023-02-28T17:41:44;3.62;;;2.03;;
44147;SDS011;29810;55.848;37.368;2023-02-28T17:44:45;4.03;;;2.08;;
44147;SDS011;29810;55.848;37.368;2023-02-28T17:47:48;86.05;;;4.28;;
44147;SDS011;29810;55.848;37.368;2023-02-28T17:50:51;59.50;;;4.22;;
44147;SDS011;29810;55.848;37.368;2023-02-28T17:53:53;3.72;;;0.57;;
44147;SDS011;29810;55.848;37.368;2023-02-28T17:56:54;2.78;;;1.02;;
44147;SDS011;29810;55.848;37.368;2023-02-28T17:59:56;8.45;;;1.15;;
44147;SDS011;29810;55.848;37.368;2023-02-28T18:02:58;17.42;;;2.90;;
44147;SDS011;29810;55.848;37.368;2023-02-28T18:05:59;2.53;;;1.08;;
44147;SDS011;29810;55.848;37.368;2023-02-28T18:09:08;4.22;;;0.90;;
44147;SDS011;29810;55.848;37.368;2023-02-28T18:12:12;2.55;;;1.02;;
44147;SDS011;29810;55.848;37.368;2023-02-28T18:15:14;2.97;;;1.10;;
44147;SDS011;29810;55.848;37.368;2023-02-28T18:18:17;3.58;;;1.40;;
44147;SDS011;29810;55.848;37.368;2023-02-28T18:21:18;3.67;;;1.10;;
44147;SDS011;29810;55.848;37.368;2023-02-28T18:24:21;5.65;;;1.30;;
44147;SDS011;29810;55.848;37.368;2023-02-28T18:27:24;3.67;;;1.40;;
44147;SDS011;29810;55.848;37.368;2023-02-28T18:30:27;3.35;;;1.33;;
44147;SDS011;29810;55.848;37.368;2023-02-28T18:33:31;2.75;;;1.42;;
44147;SDS011;29810;55.848;37.368;2023-02-28T18:36:33;3.53;;;1.25;;
44147;SDS011;29810;55.848;37.368;2023-02-28T18:39:34;3.42;;;1.23;;
44147;SDS011;29810;55.848;37.368;2023-02-28T18:42:36;2.67;;;1.10;;
44147;SDS011;29810;55.848;37.368;2023-02-28T18:45:39;3.78;;;1.00;;
44147;SDS011;29810;55.848;37.368;2023-02-28T18:48:41;1.50;;;0.80;;
44147;SDS011;29810;55.848;37.368;2023-02-28T18:51:42;3.10;;;1.00;;
44147;SDS011;29810;55.848;37.368;2023-02-28T18:54:45;2.72;;;1.10;;
44147;SDS011;29810;55.848;37.368;2023-02-28T18:57:48;4.12;;;1.35;;
44147;SDS011;29810;55.848;37.368;2023-02-28T19:00:50;4.80;;;1.20;;
44147;SDS011;29810;55.848;37.368;2023-02-28T19:03:51;4.32;;;1.40;;
44147;SDS011;29810;55.848;37.368;2023-02-28T19:06:53;2.58;;;0.85;;
44147;SDS011;29810;55.848;37.368;2023-02-28T19:09:54;4.60;;;1.33;;
44147;SDS011;29810;55.848;37.368;2023-02-28T19:12:57;2.40;;;1.20;;
44147;SDS011;29810;55.848;37.368;2023-02-28T19:16:02;2.45;;;1.10;;
44147;SDS011;29810;55.848;37.368;2023-02-28T19:19:05;5.22;;;1.15;;
44147;SDS011;29810;55.848;37.368;2023-02-28T19:22:06;4.53;;;1.10;;
44147;SDS011;29810;55.848;37.368;2023-02-28T19:25:08;3.55;;;0.90;;
44147;SDS011;29810;55.848;37.368;2023-02-28T19:28:10;2.67;;;0.90;;
44147;SDS011;29810;55.848;37.368;2023-02-28T19:31:12;3.95;;;1.05;;
44147;SDS011;29810;55.848;37.368;2023-02-28T19:34:15;4.72;;;1.20;;
44147;SDS011;29810;55.848;37.368;2023-02-28T19:37:16;1.98;;;0.70;;
44147;SDS011;29810;55.848;37.368;2023-02-28T19:40:18;3.15;;;1.00;;
44147;SDS011;29810;55.848;37.368;2023-02-28T19:43:23;2.65;;;1.00;;
44147;SDS011;29810;55.848;37.368;2023-02-28T19:46:25;4.45;;;1.00;;
44147;SDS011;29810;55.848;37.368;2023-02-28T19:49:28;2.08;;;0.98;;
44147;SDS011;29810;55.848;37.368;2023-02-28T19:52:30;2.42;;;0.80;;
44147;SDS011;29810;55.848;37.368;2023-02-28T19:55:32;4.78;;;0.93;;
44147;SDS011;29810;55.848;37.368;2023-02-28T19:58:33;2.90;;;0.90;;
44147;SDS011;29810;55.848;37.368;2023-02-28T20:01:35;2.40;;;0.70;;
44147;SDS011;29810;55.848;37.368;2023-02-28T20:04:37;3.30;;;0.70;;
44147;SDS011;29810;55.848;37.368;2023-02-28T20:07:38;1.70;;;0.60;;
44147;SDS011;29810;55.848;37.368;2023-02-28T20:10:40;2.22;;;0.85;;
44147;SDS011;29810;55.848;37.368;2023-02-28T20:13:42;2.28;;;0.70;;
44147;SDS011;29810;55.848;37.368;2023-02-28T20:16:44;2.08;;;0.80;;
44147;SDS011;29810;55.848;37.368;2023-02-28T20:19:45;3.65;;;0.98;;
44147;SDS011;29810;55.848;37.368;2023-02-28T20:22:47;2.75;;;0.60;;
44147;SDS011;29810;55.848;37.368;2023-02-28T20:25:49;3.17;;;0.80;;
44147;SDS011;29810;55.848;37.368;2023-02-28T20:28:51;2.62;;;0.93;;
44147;SDS011;29810;55.848;37.368;2023-02-28T20:31:54;3.50;;;0.95;;
44147;SDS011;29810;55.848;37.368;2023-02-28T20:34:57;2.12;;;0.80;;